KJRB

Downtown Manhattan / Wall St Heliport

New York, New York, USA
METAR KJRB 171456Z AUTO VRB04KT 10SM FEW020 07/03 A2976 RMK AO2 SLP078 60001 T00670028 58005
Observed Flight Rules
Dec-17 @ 14:56 UTC (16 minutes ago) Visual Flight Rules
Wind Visibility Clouds
Variable at 4 knots 10 miles
  • Few at 2,000' AGL
Temperatures Readings
Current 7°C / 45°F
Dewpoint 3°C / 37°F
Humidity 76%
Altimeter 29.76" Hg
Pressure 1007.8 hPa
Elevation 7
METAR KJRB 171456Z AUTO VRB04KT 10SM FEW020 07/03 A2976 RMK AO2 SLP078 60001 T00670028 58005
Observed Flight Rules
Dec-17 @ 14:56 UTC
(16 minutes ago)
VFR
Wind Visibility
Variable at 4 knots 10 miles
Clouds
  • Few at 2,000' AGL
Temperature Dewpoint
7°C / 45°F 3°C / 37°F
Humidity Altimeter Pressure
76% 29.76" Hg 1007.8 hPa